CKC4 weather

K. Coffey Residence Helipad
Calgary, Alberta, Canada

Public forecast

Using degrees Celsius for public forecast. Weather courtesy of forecast.io.

Closest aviation weather report (METAR) to K. Coffey Residence Helipad

Closest report is Calgary / Springbank Airport, 4.4 nm (8.1 km) SSW. Retrieved 2020/01/21 13:00 UTC (23 minutes ago):

CYBW 211300Z AUTO 32008KT 9SM FEW170 M02/M07 A2969 RMK SLP095

Closest aviation forecast (TAF) to K. Coffey Residence Helipad

Closest forecast is Calgary / Springbank Airport, 4.4 nm (8.1 km) SSW. Retrieved 2020/01/21 13:39 UTC (0 seconds ago):

TAF TAF CYBW 211238Z 2113/2201 31007KT P6SM FEW150 BKN200 FM211500 VRB03KT P6SM FEW200 BECMG 2116/2118 29008KT RMK FCST BASED ON AUTO OBS NXT FCST BY 211800Z